Time;durP1;ratioP1;P1;durP2;ratioP2;P2;SDS_P1;SDS_P2;PMS_P1;PMS_P2;Temp;Humidity;BMP_temperature;BMP_pressure;BME280_temperature;BME280_humidity;BME280_pressure;Samples;Min_cycle;Max_cycle;Signal;HPM_P1;HPM_P2
2023/07/07 00:00:13;;;;;;;;;;;;;;;;;;5015018;28;20546;-68
2023/07/07 00:02:39;;;;;;;;;;;;;;;;;;5014532;28;19976;-67
2023/07/07 00:05:06;;;;;;;;;;;;;;;;;;5014836;28;19952;-67
2023/07/07 00:07:33;;;;;;;;;;;;;;;;;;5014311;28;19975;-66
2023/07/07 00:10:00;;;;;;;;;;;;;;;;;;5014563;28;19925;-67
2023/07/07 00:12:30;;;;;;;;;;;;;;;;;;5014438;28;19932;-66
2023/07/07 00:14:56;;;;;;;;;;;;;;;;;;5014587;28;19925;-67
2023/07/07 00:17:23;;;;;;;;;;;;;;;;;;5014879;28;20402;-66
2023/07/07 00:19:49;;;;;;;;;;;;;;;;;;5013967;28;19926;-67
2023/07/07 00:22:15;;;;;;;;;;;;;;;;;;5014332;28;19925;-68
2023/07/07 00:24:42;;;;;;;;;;;;;;;;;;5014378;28;20401;-67
2023/07/07 00:27:10;;;;;;;;;;;;;;;;;;5014993;28;20004;-67
2023/07/07 00:29:36;;;;;;;;;;;;;;;;;;5013690;28;19934;-67
2023/07/07 00:32:03;;;;;;;;;;;;;;;;;;5014414;28;19976;-65
2023/07/07 00:34:29;;;;;;;;;;;;;;;;;;5013961;28;19931;-67
2023/07/07 00:36:56;;;;;;;;;;;;;;;;;;5014153;28;19936;-67
2023/07/07 00:39:22;;;;;;;;;;;;;;;;;;5013554;28;19936;-67
2023/07/07 00:41:49;;;;;;;;;;;;;;;;;;5013788;28;19926;-67
2023/07/07 00:44:16;;;;;;;;;;;;;;;;;;5013590;28;20392;-65
2023/07/07 00:46:43;;;;;;;;;;;;;;;;;;5013935;28;19931;-67
2023/07/07 00:49:11;;;;;;;;;;;;;;;;;;5013952;28;19941;-66
2023/07/07 00:51:39;;;;;;;;;;;;;;;;;;5013871;28;19932;-65
2023/07/07 00:54:07;;;;;;;;;;;;;;;;;;5013835;28;19926;-66
2023/07/07 00:56:35;;;;;;;;;;;;;;;;;;5013303;28;20383;-67
2023/07/07 00:59:04;;;;;;;;;;;;;;;;;;5013744;28;20295;-66
2023/07/07 01:01:32;;;;;;;;;;;;;;;;;;5013284;28;19925;-66
2023/07/07 01:04:00;;;;;;;;;;;;;;;;;;5013421;28;19932;-67
2023/07/07 01:06:30;;;;;;;;;;;;;;;;;;5013343;28;20291;-66
2023/07/07 01:08:59;;;;;;;;;;;;;;;;;;5013028;28;19940;-66
2023/07/07 01:11:25;;;;;;;;;;;;;;;;;;5012970;28;19925;-67
2023/07/07 01:13:52;;;;;;;;;;;;;;;;;;5013548;28;19930;-67
2023/07/07 01:16:23;;;;;;;;;;;;;;;;;;5013249;28;20302;-66
2023/07/07 01:18:55;;;;;;;;;;;;;;;;;;5013623;28;19925;-67
2023/07/07 01:21:29;;;;;;;;;;;;;;;;;;5012787;28;19926;-67
2023/07/07 01:24:18;;;;;;;;;;;;;;;;;;5013528;28;19930;-67
2023/07/07 01:26:59;;;;;;;;;;;;;;;;;;5013053;28;19937;-66
2023/07/07 01:29:38;;;;;;;;;;;;;;;;;;5010033;28;19932;-68
2023/07/07 01:32:08;;;;;;;;;;;;;;;;;;5012887;28;19932;-65
2023/07/07 01:34:35;;;;;;;;;;;;;;;;;;5013154;28;19932;-65
2023/07/07 01:37:01;;;;;;;;;;;;;;;;;;5012844;28;19925;-66
2023/07/07 01:39:28;;;;;;;;;;;;;;;;;;5012838;28;19932;-67
2023/07/07 01:41:57;;;;;;;;;;;;;;;;;;5012417;28;19925;-67
2023/07/07 01:44:28;;;;;;;;;;;;;;;;;;5013214;28;20287;-67
2023/07/07 01:46:57;;;;;;;;;;;;;;;;;;5013059;28;19930;-66
2023/07/07 01:49:28;;;;;;;;;;;;;;;;;;5013014;28;19932;-67
2023/07/07 01:51:57;;;;;;;;;;;;;;;;;;5003778;28;20291;-65
2023/07/07 01:54:25;;;;;;;;;;;;;;;;;;5012358;28;20363;-67
2023/07/07 01:56:53;;;;;;;;;;;;;;;;;;5012469;28;19926;-66
2023/07/07 01:59:19;;;;;;;;;;;;;;;;;;5012229;28;19998;-67
2023/07/07 02:01:46;;;;;;;;;;;;;;;;;;5012773;28;19926;-67
2023/07/07 02:04:12;;;;;;;;;;;;;;;;;;5011872;28;19933;-67
2023/07/07 02:06:40;;;;;;;;;;;;;;;;;;5012280;28;19925;-66
2023/07/07 02:09:07;;;;;;;;;;;;;;;;;;5012590;28;19947;-66
2023/07/07 02:11:33;;;;;;;;;;;;;;;;;;5012091;28;19926;-67
2023/07/07 02:14:00;;;;;;;;;;;;;;;;;;5011902;28;20365;-66
2023/07/07 02:16:26;;;;;;;;;;;;;;;;;;5012519;28;20032;-67
2023/07/07 02:18:53;;;;;;;;;;;;;;;;;;5012029;28;19932;-67
2023/07/07 02:21:19;;;;;;;;;;;;;;;;;;5010915;28;20023;-66
2023/07/07 02:23:47;;;;;;;;;;;;;;;;;;5012410;28;19941;-66
2023/07/07 02:26:18;;;;;;;;;;;;;;;;;;5011756;28;20300;-67
2023/07/07 02:28:44;;;;;;;;;;;;;;;;;;5012091;28;19956;-67
2023/07/07 02:31:11;;;;;;;;;;;;;;;;;;5011701;28;19925;-67
2023/07/07 02:33:37;;;;;;;;;;;;;;;;;;5012166;28;19926;-67
2023/07/07 02:36:05;;;;;;;;;;;;;;;;;;5011444;28;19925;-67
2023/07/07 02:38:32;;;;;;;;;;;;;;;;;;5012215;28;20016;-67
2023/07/07 02:40:59;;;;;;;;;;;;;;;;;;5011529;28;19932;-68
2023/07/07 02:43:26;;;;;;;;;;;;;;;;;;5011975;28;19925;-68
2023/07/07 02:45:52;;;;;;;;;;;;;;;;;;5011854;28;19930;-66
2023/07/07 02:48:19;;;;;;;;;;;;;;;;;;5011596;28;20279;-67
2023/07/07 02:50:46;;;;;;;;;;;;;;;;;;5011667;28;19961;-68
2023/07/07 02:53:12;;;;;;;;;;;;;;;;;;5011249;28;20304;-67
2023/07/07 02:55:39;;;;;;;;;;;;;;;;;;5011660;28;20401;-67
2023/07/07 02:58:07;;;;;;;;;;;;;;;;;;5011001;28;19932;-67
2023/07/07 03:00:33;;;;;;;;;;;;;;;;;;5011964;28;20290;-65
2023/07/07 03:02:59;;;;;;;;;;;;;;;;;;5011046;28;19925;-67
2023/07/07 03:05:26;;;;;;;;;;;;;;;;;;5011102;28;19925;-67
2023/07/07 03:07:52;;;;;;;;;;;;;;;;;;5010931;28;19973;-67
2023/07/07 03:10:18;;;;;;;;;;;;;;;;;;5011371;28;19932;-67
2023/07/07 03:12:45;;;;;;;;;;;;;;;;;;5011048;28;19925;-67
2023/07/07 03:15:13;;;;;;;;;;;;;;;;;;5011069;28;19925;-67
2023/07/07 03:17:39;;;;;;;;;;;;;;;;;;5010994;28;19931;-68
2023/07/07 03:20:09;;;;;;;;;;;;;;;;;;5010687;28;19926;-66
2023/07/07 03:22:35;;;;;;;;;;;;;;;;;;5011233;28;20291;-68
2023/07/07 03:25:02;;;;;;;;;;;;;;;;;;5010560;28;19925;-67
2023/07/07 03:27:28;;;;;;;;;;;;;;;;;;5011223;28;19932;-66
2023/07/07 03:29:55;;;;;;;;;;;;;;;;;;5010826;28;20359;-67
2023/07/07 03:32:22;;;;;;;;;;;;;;;;;;5010997;28;19973;-67
2023/07/07 03:34:49;;;;;;;;;;;;;;;;;;5010837;28;19925;-67
2023/07/07 03:37:16;;;;;;;;;;;;;;;;;;5011134;28;19952;-67
2023/07/07 03:39:42;;;;;;;;;;;;;;;;;;5010728;28;19936;-66
2023/07/07 03:42:09;;;;;;;;;;;;;;;;;;5040595;22;20015;-66
2023/07/07 03:44:35;;;;;;;;;;;;;;;;;;5030832;28;19929;-65
2023/07/07 03:47:02;;;;;;;;;;;;;;;;;;5030296;28;19947;-66
2023/07/07 03:49:29;;;;;;;;;;;;;;;;;;5030085;28;20250;-66
2023/07/07 03:51:56;;;;;;;;;;;;;;;;;;5030432;28;19925;-66
2023/07/07 03:54:22;;;;;;;;;;;;;;;;;;5030376;28;19929;-66
2023/07/07 03:56:49;;;;;;;;;;;;;;;;;;5029701;28;19925;-64
2023/07/07 03:59:15;;;;;;;;;;;;;;;;;;5030336;28;20024;-65
2023/07/07 04:01:41;;;;;;;;;;;;;;;;;;5029469;28;19925;-66
2023/07/07 04:04:08;;;;;;;;;;;;;;;;;;5030206;28;20188;-66
2023/07/07 04:06:37;;;;;;;;;;;;;;;;;;5029860;28;20016;-66
2023/07/07 04:09:03;;;;;;;;;;;;;;;;;;5030226;28;19932;-65
2023/07/07 04:11:31;;;;;;;;;;;;;;;;;;5029361;28;19936;-66
2023/07/07 04:13:57;;;;;;;;;;;;;;;;;;5030503;28;19948;-65
2023/07/07 04:16:24;;;;;;;;;;;;;;;;;;5029636;28;20405;-65
2023/07/07 04:18:51;;;;;;;;;;;;;;;;;;5028427;28;19929;-65
2023/07/07 04:21:19;;;;;;;;;;;;;;;;;;5029199;28;19925;-66
2023/07/07 04:23:47;;;;;;;;;;;;;;;;;;5029436;28;19971;-64
2023/07/07 04:26:14;;;;;;;;;;;;;;;;;;5029987;28;19926;-66
2023/07/07 04:28:40;;;;;;;;;;;;;;;;;;5029400;28;20390;-66
2023/07/07 04:31:09;;;;;;;;;;;;;;;;;;5029451;28;19926;-66
2023/07/07 04:33:35;;;;;;;;;;;;;;;;;;5029405;28;19931;-66
2023/07/07 04:36:03;;;;;;;;;;;;;;;;;;5030121;28;19936;-67
2023/07/07 04:38:31;;;;;;;;;;;;;;;;;;5029567;28;19925;-67
2023/07/07 04:41:05;;;;;;;;;;;;;;;;;;5029533;28;19925;-66
2023/07/07 04:43:31;;;;;;;;;;;;;;;;;;5030394;28;19932;-65
2023/07/07 04:45:58;;;;;;;;;;;;;;;;;;5033491;28;19935;-65
2023/07/07 04:48:24;;;;;;;;;;;;;;;;;;5033025;28;20368;-62
2023/07/07 04:50:51;;;;;;;;;;;;;;;;;;5033542;28;19924;-64
2023/07/07 04:53:18;;;;;;;;;;;;;;;;;;5033248;28;19932;-64
2023/07/07 04:55:46;;;;;;;;;;;;;;;;;;5033153;28;19925;-65
2023/07/07 04:58:13;;;;;;;;;;;;;;;;;;5032908;28;19979;-64
2023/07/07 05:00:40;;;;;;;;;;;;;;;;;;5032572;28;20290;-64
2023/07/07 05:03:06;;;;;;;;;;;;;;;;;;5033356;28;19924;-64
2023/07/07 05:05:35;;;;;;;;;;;;;;;;;;5032543;28;19937;-64
2023/07/07 05:08:02;;;;;;;;;;;;;;;;;;5032834;28;19925;-65
2023/07/07 05:10:28;;;;;;;;;;;;;;;;;;5032223;28;20385;-64
2023/07/07 05:12:54;;;;;;;;;;;;;;;;;;5032658;28;19925;-64
2023/07/07 05:15:24;;;;;;;;;;;;;;;;;;5032838;28;20305;-63
2023/07/07 05:17:51;;;;;;;;;;;;;;;;;;5032620;28;19925;-64
2023/07/07 05:20:18;;;;;;;;;;;;;;;;;;5032152;28;20299;-64
2023/07/07 05:22:44;;;;;;;;;;;;;;;;;;5032650;28;20295;-64
2023/07/07 05:25:10;;;;;;;;;;;;;;;;;;5032187;28;19925;-65
2023/07/07 05:27:37;;;;;;;;;;;;;;;;;;5032642;28;19929;-65
2023/07/07 05:30:04;;;;;;;;;;;;;;;;;;5031908;28;19935;-63
2023/07/07 05:32:32;;;;;;;;;;;;;;;;;;5032508;28;19925;-64
2023/07/07 05:34:58;;;;;;;;;;;;;;;;;;5032730;28;19932;-64
2023/07/07 05:37:26;;;;;;;;;;;;;;;;;;5031965;28;20360;-64
2023/07/07 05:39:52;;;;;;;;;;;;;;;;;;5032063;28;20297;-64
2023/07/07 05:42:19;;;;;;;;;;;;;;;;;;5032058;28;20008;-64
2023/07/07 05:44:45;;;;;;;;;;;;;;;;;;5033739;28;19925;-65
2023/07/07 05:47:12;;;;;;;;;;;;;;;;;;5035361;28;19925;-65
2023/07/07 05:49:39;;;;;;;;;;;;;;;;;;5021122;28;19925;-62
2023/07/07 05:52:07;;;;;;;;;;;;;;;;;;5023092;28;19932;-66
2023/07/07 05:54:33;;;;;;;;;;;;;;;;;;5031159;28;20343;-65
2023/07/07 05:57:00;;;;;;;;;;;;;;;;;;5046543;28;19931;-66
2023/07/07 05:59:26;;;;;;;;;;;;;;;;;;5027541;28;19926;-62
2023/07/07 06:01:52;;;;;;;;;;;;;;;;;;5027012;28;20039;-64
2023/07/07 06:04:20;;;;;;;;;;;;;;;;;;5025645;28;19953;-65
2023/07/07 06:06:47;;;;;;;;;;;;;;;;;;5026896;28;19925;-65
2023/07/07 06:09:14;;;;;;;;;;;;;;;;;;5026483;28;19955;-63
2023/07/07 06:11:40;;;;;;;;;;;;;;;;;;5039932;28;19940;-64
2023/07/07 06:14:06;;;;;;;;;;;;;;;;;;5031502;28;19925;-65
2023/07/07 06:16:33;;;;;;;;;;;;;;;;;;5031923;28;19925;-64
2023/07/07 06:18:59;;;;;;;;;;;;;;;;;;5030758;28;20048;-64
2023/07/07 06:21:26;;;;;;;;;;;;;;;;;;5024433;28;19925;-66
2023/07/07 06:23:53;;;;;;;;;;;;;;;;;;5034946;28;19931;-65
2023/07/07 06:26:20;;;;;;;;;;;;;;;;;;5032584;28;19931;-65
2023/07/07 06:28:46;;;;;;;;;;;;;;;;;;5043497;28;19991;-65
2023/07/07 06:31:13;;;;;;;;;;;;;;;;;;5050113;28;19925;-65
2023/07/07 06:33:42;;;;;;;;;;;;;;;;;;5030952;28;20345;-65
2023/07/07 06:36:08;;;;;;;;;;;;;;;;;;5028837;28;19940;-64
2023/07/07 06:38:35;;;;;;;;;;;;;;;;;;5027945;28;20334;-65
2023/07/07 06:41:02;;;;;;;;;;;;;;;;;;5031285;28;19925;-65
2023/07/07 06:43:29;;;;;;;;;;;;;;;;;;5030460;28;20405;-65
2023/07/07 06:45:57;;;;;;;;;;;;;;;;;;5030465;28;20203;-66
2023/07/07 06:48:23;;;;;;;;;;;;;;;;;;5035419;28;19929;-66
2023/07/07 06:50:50;;;;;;;;;;;;;;;;;;5025100;28;19932;-65
2023/07/07 06:53:16;;;;;;;;;;;;;;;;;;5038702;28;19964;-64
2023/07/07 06:55:43;;;;;;;;;;;;;;;;;;5034871;28;19925;-65
2023/07/07 06:58:11;;;;;;;;;;;;;;;;;;5047829;28;20024;-65
2023/07/07 07:00:37;;;;;;;;;;;;;;;;;;5028568;28;19932;-66
2023/07/07 07:03:04;;;;;;;;;;;;;;;;;;5030341;28;20007;-63
2023/07/07 07:05:30;;;;;;;;;;;;;;;;;;5028506;28;19936;-63
2023/07/07 07:07:57;;;;;;;;;;;;;;;;;;5032968;28;20008;-65
2023/07/07 07:10:23;;;;;;;;;;;;;;;;;;5048003;28;19925;-66
2023/07/07 07:12:49;;;;;;;;;;;;;;;;;;5029347;28;20020;-65
2023/07/07 07:15:17;;;;;;;;;;;;;;;;;;5030773;28;20262;-65
2023/07/07 07:17:44;;;;;;;;;;;;;;;;;;5026758;28;19951;-66
2023/07/07 07:20:11;;;;;;;;;;;;;;;;;;5027211;28;19929;-64
2023/07/07 07:22:37;;;;;;;;;;;;;;;;;;5038133;28;19925;-65
2023/07/07 07:25:04;;;;;;;;;;;;;;;;;;5046335;28;20439;-65
2023/07/07 07:27:30;;;;;;;;;;;;;;;;;;5051353;28;19925;-65
2023/07/07 07:29:57;;;;;;;;;;;;;;;;;;5043628;28;19957;-64
2023/07/07 07:32:25;;;;;;;;;;;;;;;;;;5034782;28;19925;-66
2023/07/07 07:34:51;;;;;;;;;;;;;;;;;;5035176;28;19931;-64
2023/07/07 07:37:17;;;;;;;;;;;;;;;;;;5037376;28;19936;-65
2023/07/07 07:39:44;;;;;;;;;;;;;;;;;;5025119;28;19929;-65
2023/07/07 07:42:10;;;;;;;;;;;;;;;;;;5029942;28;19925;-65
2023/07/07 07:44:39;;;;;;;;;;;;;;;;;;5036793;28;20293;-66
2023/07/07 07:47:05;;;;;;;;;;;;;;;;;;5048977;28;19935;-66
2023/07/07 07:49:33;;;;;;;;;;;;;;;;;;5049753;28;20015;-64
2023/07/07 07:52:00;;;;;;;;;;;;;;;;;;5047892;28;19946;-65
2023/07/07 07:54:26;;;;;;;;;;;;;;;;;;5030216;28;19929;-65
2023/07/07 07:56:53;;;;;;;;;;;;;;;;;;5029638;28;19936;-66
2023/07/07 07:59:19;;;;;;;;;;;;;;;;;;5030170;28;20024;-66
2023/07/07 08:01:46;;;;;;;;;;;;;;;;;;5029785;28;20193;-66
2023/07/07 08:04:13;;;;;;;;;;;;;;;;;;5031978;28;19925;-65
2023/07/07 08:06:41;;;;;;;;;;;;;;;;;;5030371;28;19925;-65
2023/07/07 08:09:07;;;;;;;;;;;;;;;;;;5029658;28;20023;-66
2023/07/07 08:11:53;;;;;;;;;;;;;;;;;;5029881;28;20000;-64
2023/07/07 08:14:20;;;;;;;;;;;;;;;;;;5020954;28;20294;-66
2023/07/07 08:16:47;;;;;;;;;;;;;;;;;;5025434;28;19967;-64
2023/07/07 08:19:13;;;;;;;;;;;;;;;;;;5021027;28;19925;-66
2023/07/07 08:21:41;;;;;;;;;;;;;;;;;;5031669;28;19991;-66
2023/07/07 08:24:08;;;;;;;;;;;;;;;;;;5046694;28;19925;-66
2023/07/07 08:26:35;;;;;;;;;;;;;;;;;;5031856;28;19932;-64
2023/07/07 08:29:01;;;;;;;;;;;;;;;;;;5033430;28;19931;-65
2023/07/07 08:31:28;;;;;;;;;;;;;;;;;;5033175;28;19948;-66
2023/07/07 08:33:54;;;;;;;;;;;;;;;;;;5043216;28;19925;-65
2023/07/07 08:36:21;;;;;;;;;;;;;;;;;;5051305;28;20354;-66
2023/07/07 08:38:49;;;;;;;;;;;;;;;;;;5028865;28;19926;-65
2023/07/07 08:41:15;;;;;;;;;;;;;;;;;;5041026;28;19929;-66
2023/07/07 08:43:42;;;;;;;;;;;;;;;;;;5030526;28;20379;-66
2023/07/07 08:46:10;;;;;;;;;;;;;;;;;;5031538;28;19932;-65
2023/07/07 08:48:41;;;;;;;;;;;;;;;;;;5034229;28;19929;-65
2023/07/07 08:51:10;;;;;;;;;;;;;;;;;;5029234;28;20418;-64
2023/07/07 08:53:42;;;;;;;;;;;;;;;;;;5031426;28;19929;-66
2023/07/07 08:56:14;;;;;;;;;;;;;;;;;;5019803;28;20385;-65
2023/07/07 08:58:45;;;;;;;;;;;;;;;;;;5031335;28;20015;-66
2023/07/07 09:01:25;;;;;;;;;;;;;;;;;;5028895;28;19926;-64
2023/07/07 09:04:02;;;;;;;;;;;;;;;;;;5026379;28;19925;-66
2023/07/07 09:06:34;;;;;;;;;;;;;;;;;;5026064;28;19929;-65
2023/07/07 09:09:04;;;;;;;;;;;;;;;;;;5030373;28;20298;-66
2023/07/07 09:11:36;;;;;;;;;;;;;;;;;;5029177;28;19932;-66
2023/07/07 09:14:03;;;;;;;;;;;;;;;;;;5029170;28;19925;-66
2023/07/07 09:16:30;;;;;;;;;;;;;;;;;;5032164;28;19925;-66
2023/07/07 09:19:03;;;;;;;;;;;;;;;;;;5022780;28;19938;-64
2023/07/07 09:21:32;;;;;;;;;;;;;;;;;;5024871;28;19988;-66
2023/07/07 09:24:04;;;;;;;;;;;;;;;;;;5029148;28;19925;-66
2023/07/07 09:26:32;;;;;;;;;;;;;;;;;;5031655;28;19926;-65
2023/07/07 09:29:00;;;;;;;;;;;;;;;;;;5024265;28;20024;-65
2023/07/07 09:31:31;;;;;;;;;;;;;;;;;;5029109;28;20260;-64
2023/07/07 09:33:59;;;;;;;;;;;;;;;;;;5033783;28;19929;-66
2023/07/07 09:36:28;;;;;;;;;;;;;;;;;;5045902;28;19925;-66
2023/07/07 09:38:58;;;;;;;;;;;;;;;;;;5011867;28;20030;-66
2023/07/07 09:41:30;;;;;;;;;;;;;;;;;;5024520;28;19925;-66
2023/07/07 09:44:12;;;;;;;;;;;;;;;;;;5027584;28;19932;-66
2023/07/07 09:46:41;;;;;;;;;;;;;;;;;;5050374;28;19983;-67
2023/07/07 09:49:13;;;;;;;;;;;;;;;;;;5035851;28;20442;-67
2023/07/07 09:51:42;;;;;;;;;;;;;;;;;;5024940;28;19932;-66
2023/07/07 09:54:10;;;;;;;;;;;;;;;;;;5031082;28;19956;-65
2023/07/07 09:56:39;;;;;;;;;;;;;;;;;;5033403;28;19925;-66
2023/07/07 09:59:10;;;;;;;;;;;;;;;;;;5042681;28;19925;-65
2023/07/07 10:01:38;;;;;;;;;;;;;;;;;;5035731;28;19924;-66
2023/07/07 10:04:12;;;;;;;;;;;;;;;;;;5040377;28;19935;-65
2023/07/07 10:06:41;;;;;;;;;;;;;;;;;;5044740;28;20007;-65
2023/07/07 10:09:10;;;;;;;;;;;;;;;;;;5032971;28;19936;-66
2023/07/07 10:11:38;;;;;;;;;;;;;;;;;;5031716;28;19928;-65
2023/07/07 10:14:05;;;;;;;;;;;;;;;;;;5032286;28;19926;-66
2023/07/07 10:16:37;;;;;;;;;;;;;;;;;;5030724;28;20325;-66
2023/07/07 10:19:07;;;;;;;;;;;;;;;;;;5043755;28;19967;-65
2023/07/07 10:21:33;;;;;;;;;;;;;;;;;;5037166;28;19925;-66
2023/07/07 10:24:00;;;;;;;;;;;;;;;;;;5037601;28;19924;-66
2023/07/07 10:26:26;;;;;;;;;;;;;;;;;;5046921;28;19925;-66
2023/07/07 10:28:55;;;;;;;;;;;;;;;;;;5030092;28;20412;-66
2023/07/07 10:31:23;;;;;;;;;;;;;;;;;;5030282;28;19925;-65
2023/07/07 10:33:56;;;;;;;;;;;;;;;;;;5030201;28;19933;-66
2023/07/07 10:36:24;;;;;;;;;;;;;;;;;;5024517;28;20395;-66
2023/07/07 10:38:53;;;;;;;;;;;;;;;;;;5040560;28;19925;-67
2023/07/07 10:41:20;;;;;;;;;;;;;;;;;;5049735;28;19925;-66
2023/07/07 10:43:46;;;;;;;;;;;;;;;;;;5051046;28;20277;-66
2023/07/07 10:46:13;;;;;;;;;;;;;;;;;;5050207;28;20019;-66
2023/07/07 10:48:40;;;;;;;;;;;;;;;;;;5051307;28;20016;-66
2023/07/07 10:51:16;;;;;;;;;;;;;;;;;;5050466;28;19944;-66
2023/07/07 10:53:48;;;;;;;;;;;;;;;;;;5051157;28;19988;-66
2023/07/07 10:56:18;;;;;;;;;;;;;;;;;;5050699;28;20397;-66
2023/07/07 10:58:52;;;;;;;;;;;;;;;;;;5051273;28;19971;-66
2023/07/07 11:01:23;;;;;;;;;;;;;;;;;;5050484;28;19928;-66
2023/07/07 11:04:01;;;;;;;;;;;;;;;;;;5051137;28;19931;-67
2023/07/07 11:06:33;;;;;;;;;;;;;;;;;;5050893;28;19950;-66
2023/07/07 11:09:04;;;;;;;;;;;;;;;;;;5050656;28;19924;-66
2023/07/07 11:11:35;;;;;;;;;;;;;;;;;;5050557;28;19931;-66
2023/07/07 11:14:18;;;;;;;;;;;;;;;;;;5042271;28;19973;-66
2023/07/07 11:16:48;;;;;;;;;;;;;;;;;;5030167;28;20379;-67
2023/07/07 11:19:30;;;;;;;;;;;;;;;;;;5030292;28;20280;-66
2023/07/07 11:22:01;;;;;;;;;;;;;;;;;;5028344;28;19925;-66
2023/07/07 11:24:30;;;;;;;;;;;;;;;;;;5029830;28;19928;-66
2023/07/07 11:27:09;;;;;;;;;;;;;;;;;;5030357;28;19929;-66
2023/07/07 11:29:39;;;;;;;;;;;;;;;;;;5030287;28;19925;-66
2023/07/07 11:32:10;;;;;;;;;;;;;;;;;;5030103;28;19932;-65
2023/07/07 11:34:49;;;;;;;;;;;;;;;;;;5030875;28;19929;-66
2023/07/07 11:37:24;;;;;;;;;;;;;;;;;;5029260;28;19929;-65
2023/07/07 11:39:57;;;;;;;;;;;;;;;;;;5030651;28;20409;-66
2023/07/07 11:42:30;;;;;;;;;;;;;;;;;;5030150;28;20290;-66
2023/07/07 11:45:01;;;;;;;;;;;;;;;;;;5030531;28;19925;-65
2023/07/07 11:47:35;;;;;;;;;;;;;;;;;;5030782;28;19932;-65
2023/07/07 11:50:10;;;;;;;;;;;;;;;;;;5029671;28;19931;-65
2023/07/07 11:52:47;;;;;;;;;;;;;;;;;;5031601;28;19925;-65
2023/07/07 11:55:17;;;;;;;;;;;;;;;;;;5033967;28;19929;-65
2023/07/07 11:57:50;;;;;;;;;;;;;;;;;;5034698;28;20309;-66
2023/07/07 12:00:25;;;;;;;;;;;;;;;;;;5033780;28;20397;-64
2023/07/07 12:02:55;;;;;;;;;;;;;;;;;;5033532;28;19925;-65
2023/07/07 12:05:25;;;;;;;;;;;;;;;;;;5032331;28;19925;-66
2023/07/07 12:07:55;;;;;;;;;;;;;;;;;;5034204;28;19926;-66
2023/07/07 12:10:23;;;;;;;;;;;;;;;;;;5033119;28;19925;-65
2023/07/07 12:12:55;;;;;;;;;;;;;;;;;;5033799;28;19935;-66
2023/07/07 12:15:25;;;;;;;;;;;;;;;;;;5033678;28;19925;-65
2023/07/07 12:17:56;;;;;;;;;;;;;;;;;;5034029;28;19925;-65
2023/07/07 12:20:24;;;;;;;;;;;;;;;;;;5033771;28;20351;-65
2023/07/07 12:22:51;;;;;;;;;;;;;;;;;;5033721;28;19925;-66
2023/07/07 12:25:22;;;;;;;;;;;;;;;;;;5033817;28;20363;-65
2023/07/07 12:27:51;;;;;;;;;;;;;;;;;;5033560;28;19925;-66
2023/07/07 12:30:20;;;;;;;;;;;;;;;;;;5033168;28;19925;-66
2023/07/07 12:32:46;;;;;;;;;;;;;;;;;;5031198;28;19929;-66
2023/07/07 12:35:15;;;;;;;;;;;;;;;;;;5048570;28;20019;-66
2023/07/07 12:37:42;;;;;;;;;;;;;;;;;;5052796;28;19932;-65
2023/07/07 12:40:16;;;;;;;;;;;;;;;;;;5052828;28;20023;-66
2023/07/07 12:42:44;;;;;;;;;;;;;;;;;;5053375;28;20271;-66
2023/07/07 12:45:17;;;;;;;;;;;;;;;;;;5053054;28;19955;-66
2023/07/07 12:47:45;;;;;;;;;;;;;;;;;;5052937;28;19925;-66
2023/07/07 12:50:24;;;;;;;;;;;;;;;;;;5052990;28;20321;-66
2023/07/07 12:52:50;;;;;;;;;;;;;;;;;;5050773;28;19925;-66
2023/07/07 12:55:21;;;;;;;;;;;;;;;;;;5033195;28;19925;-66
2023/07/07 12:58:06;;;;;;;;;;;;;;;;;;5032864;28;20354;-66
2023/07/07 13:00:34;;;;;;;;;;;;;;;;;;5032736;28;19925;-66
2023/07/07 13:03:02;;;;;;;;;;;;;;;;;;5033811;28;19952;-67
2023/07/07 13:05:32;;;;;;;;;;;;;;;;;;5035900;28;19925;-67
2023/07/07 13:07:59;;;;;;;;;;;;;;;;;;5052613;28;19935;-67
2023/07/07 13:10:32;;;;;;;;;;;;;;;;;;5052249;28;19925;-67
2023/07/07 13:13:05;;;;;;;;;;;;;;;;;;5052796;28;19931;-67
2023/07/07 13:15:31;;;;;;;;;;;;;;;;;;5052338;28;20208;-66
2023/07/07 13:17:59;;;;;;;;;;;;;;;;;;5052953;28;20378;-67
2023/07/07 13:20:26;;;;;;;;;;;;;;;;;;5051690;28;20065;-66
2023/07/07 13:22:55;;;;;;;;;;;;;;;;;;5052800;28;19925;-66
2023/07/07 13:25:24;;;;;;;;;;;;;;;;;;5052363;28;19924;-67
2023/07/07 13:27:54;;;;;;;;;;;;;;;;;;5052885;28;19925;-67
2023/07/07 13:30:26;;;;;;;;;;;;;;;;;;5051607;28;20412;-67
2023/07/07 13:32:55;;;;;;;;;;;;;;;;;;5042124;28;20273;-66
2023/07/07 13:35:23;;;;;;;;;;;;;;;;;;5032251;28;19925;-67
2023/07/07 13:37:49;;;;;;;;;;;;;;;;;;5032074;28;19929;-67
2023/07/07 13:40:17;;;;;;;;;;;;;;;;;;5032089;28;20043;-67
2023/07/07 13:42:44;;;;;;;;;;;;;;;;;;5031908;28;19925;-67
2023/07/07 13:45:14;;;;;;;;;;;;;;;;;;5032213;28;19979;-67
2023/07/07 13:47:41;;;;;;;;;;;;;;;;;;5031797;28;19933;-67
2023/07/07 13:50:09;;;;;;;;;;;;;;;;;;5031914;28;20418;-67
2023/07/07 13:52:40;;;;;;;;;;;;;;;;;;5031651;28;19929;-67
2023/07/07 13:55:11;;;;;;;;;;;;;;;;;;5032350;28;20024;-67
2023/07/07 13:57:38;;;;;;;;;;;;;;;;;;5031377;28;19925;-67
2023/07/07 14:00:06;;;;;;;;;;;;;;;;;;5031380;28;19932;-67
2023/07/07 14:02:34;;;;;;;;;;;;;;;;;;5031496;28;20379;-68
2023/07/07 14:05:01;;;;;;;;;;;;;;;;;;5031461;28;19932;-67
2023/07/07 14:07:28;;;;;;;;;;;;;;;;;;5032056;28;20293;-67
2023/07/07 14:09:56;;;;;;;;;;;;;;;;;;5031173;28;19925;-67
2023/07/07 14:12:24;;;;;;;;;;;;;;;;;;5031756;28;19925;-67
2023/07/07 14:14:54;;;;;;;;;;;;;;;;;;5031565;28;19929;-67
2023/07/07 14:17:22;;;;;;;;;;;;;;;;;;5031817;28;19929;-67
2023/07/07 14:19:53;;;;;;;;;;;;;;;;;;5030745;28;19925;-67
2023/07/07 14:22:20;;;;;;;;;;;;;;;;;;5031411;28;19929;-67
2023/07/07 14:24:46;;;;;;;;;;;;;;;;;;5030909;28;19925;-66
2023/07/07 14:27:15;;;;;;;;;;;;;;;;;;5031587;28;19925;-67
2023/07/07 14:29:43;;;;;;;;;;;;;;;;;;5031679;28;20294;-67
2023/07/07 14:32:14;;;;;;;;;;;;;;;;;;5031501;28;19935;-67
2023/07/07 14:34:50;;;;;;;;;;;;;;;;;;5031663;28;20019;-67
2023/07/07 14:37:22;;;;;;;;;;;;;;;;;;5030590;28;20005;-67
2023/07/07 14:39:50;;;;;;;;;;;;;;;;;;5031025;28;20310;-67
2023/07/07 14:42:21;;;;;;;;;;;;;;;;;;5030670;28;20276;-67
2023/07/07 14:44:49;;;;;;;;;;;;;;;;;;5031220;28;19925;-67
2023/07/07 14:47:18;;;;;;;;;;;;;;;;;;5030763;28;19935;-66
2023/07/07 14:49:45;;;;;;;;;;;;;;;;;;5031016;28;19932;-67
2023/07/07 14:52:17;;;;;;;;;;;;;;;;;;5045643;28;19924;-66
2023/07/07 14:54:43;;;;;;;;;;;;;;;;;;5051088;28;19947;-67
2023/07/07 14:57:15;;;;;;;;;;;;;;;;;;5050473;28;19931;-67
2023/07/07 14:59:43;;;;;;;;;;;;;;;;;;5050538;28;20332;-67
2023/07/07 15:02:28;;;;;;;;;;;;;;;;;;5050680;28;20369;-66
2023/07/07 15:04:54;;;;;;;;;;;;;;;;;;5051168;28;19957;-66
2023/07/07 15:07:25;;;;;;;;;;;;;;;;;;5050313;28;19940;-66
2023/07/07 15:09:52;;;;;;;;;;;;;;;;;;5049802;28;19924;-66
2023/07/07 15:12:18;;;;;;;;;;;;;;;;;;5050435;28;19932;-66
2023/07/07 15:14:48;;;;;;;;;;;;;;;;;;5050494;28;19925;-67
2023/07/07 15:17:14;;;;;;;;;;;;;;;;;;5047694;28;19947;-66
2023/07/07 15:19:47;;;;;;;;;;;;;;;;;;5030437;28;19929;-66
2023/07/07 15:22:14;;;;;;;;;;;;;;;;;;5029914;28;19925;-66
2023/07/07 15:24:41;;;;;;;;;;;;;;;;;;5029949;28;20019;-67
2023/07/07 15:27:10;;;;;;;;;;;;;;;;;;5029624;28;19925;-66
2023/07/07 15:29:36;;;;;;;;;;;;;;;;;;5044839;28;19925;-67
2023/07/07 15:32:09;;;;;;;;;;;;;;;;;;5050171;28;19925;-67
2023/07/07 15:34:35;;;;;;;;;;;;;;;;;;5050770;28;19925;-66
2023/07/07 15:37:02;;;;;;;;;;;;;;;;;;5049891;28;19925;-68
2023/07/07 15:39:28;;;;;;;;;;;;;;;;;;5050180;28;19925;-67
2023/07/07 15:41:54;;;;;;;;;;;;;;;;;;5049316;22;20008;-64
2023/07/07 15:44:22;;;;;;;;;;;;;;;;;;5031126;28;20008;-65
2023/07/07 15:46:48;;;;;;;;;;;;;;;;;;5030593;28;20402;-64
2023/07/07 15:49:17;;;;;;;;;;;;;;;;;;5030796;28;20409;-65
2023/07/07 15:51:45;;;;;;;;;;;;;;;;;;5030510;28;20425;-64
2023/07/07 15:54:15;;;;;;;;;;;;;;;;;;5030730;28;19925;-63
2023/07/07 15:56:42;;;;;;;;;;;;;;;;;;5030246;28;19951;-65
2023/07/07 15:59:12;;;;;;;;;;;;;;;;;;5030615;28;19931;-64
2023/07/07 16:01:39;;;;;;;;;;;;;;;;;;5030726;28;19925;-64
2023/07/07 16:04:05;;;;;;;;;;;;;;;;;;5030467;28;19925;-65
2023/07/07 16:06:33;;;;;;;;;;;;;;;;;;5030737;28;20370;-63
2023/07/07 16:08:59;;;;;;;;;;;;;;;;;;5029785;28;20306;-64
2023/07/07 16:11:27;;;;;;;;;;;;;;;;;;5030206;28;19925;-63
2023/07/07 16:13:53;;;;;;;;;;;;;;;;;;5029963;28;19925;-63
2023/07/07 16:16:21;;;;;;;;;;;;;;;;;;5030478;28;19940;-64
2023/07/07 16:18:48;;;;;;;;;;;;;;;;;;5030050;28;20015;-63
2023/07/07 16:21:17;;;;;;;;;;;;;;;;;;5030570;28;19925;-64
2023/07/07 16:23:45;;;;;;;;;;;;;;;;;;5029862;28;19935;-63
2023/07/07 16:26:12;;;;;;;;;;;;;;;;;;5030661;28;20012;-65
2023/07/07 16:28:39;;;;;;;;;;;;;;;;;;5030052;28;20623;-65
2023/07/07 16:31:05;;;;;;;;;;;;;;;;;;5030201;28;19931;-65
2023/07/07 16:33:31;;;;;;;;;;;;;;;;;;5029936;28;19935;-61
2023/07/07 16:35:58;;;;;;;;;;;;;;;;;;5030155;28;20424;-64
2023/07/07 16:38:24;;;;;;;;;;;;;;;;;;5030471;28;20297;-65
2023/07/07 16:40:52;;;;;;;;;;;;;;;;;;5033035;28;19925;-65
2023/07/07 16:43:18;;;;;;;;;;;;;;;;;;5034341;28;20004;-64
2023/07/07 16:45:46;;;;;;;;;;;;;;;;;;5033603;28;19944;-64
2023/07/07 16:48:13;;;;;;;;;;;;;;;;;;5033644;28;19925;-65
2023/07/07 16:50:39;;;;;;;;;;;;;;;;;;5033316;28;19932;-63
2023/07/07 16:53:06;;;;;;;;;;;;;;;;;;5033538;28;20335;-62